Time;durP1;ratioP1;P1;durP2;ratioP2;P2;SDS_P1;SDS_P2;PMS_P1;PMS_P2;Temp;Humidity;BMP_temperature;BMP_pressure;BME280_temperature;BME280_humidity;BME280_pressure;Samples;Min_cycle;Max_cycle;Signal;HPM_P1;HPM_P2
2022/11/22 00:00:17;;;;;;;36.15;22.75;;;3.20;99.90;;;;;;5092663;28;20376;-74
2022/11/22 00:02:43;;;;;;;31.83;19.75;;;3.10;99.90;;;;;;5089945;28;20051;-73
2022/11/22 00:05:09;;;;;;;36.80;21.17;;;3.20;99.90;;;;;;5089815;28;20047;-73
2022/11/22 00:07:36;;;;;;;34.90;21.15;;;3.10;99.90;;;;;;5092769;28;20396;-72
2022/11/22 00:10:03;;;;;;;32.58;20.35;;;3.10;99.90;;;;;;5094053;28;20043;-72
2022/11/22 00:12:28;;;;;;;34.70;20.77;;;3.10;99.90;;;;;;5073524;28;20048;-77
2022/11/22 00:14:54;;;;;;;33.50;19.23;;;3.10;99.90;;;;;;5108701;28;20054;-73
2022/11/22 00:17:19;;;;;;;35.72;21.15;;;3.30;99.90;;;;;;5092476;28;20065;-72
2022/11/22 00:19:45;;;;;;;35.33;21.33;;;3.20;99.90;;;;;;5093890;28;20056;-73
2022/11/22 00:22:11;;;;;;;36.08;22.58;;;2.40;99.90;;;;;;5091212;28;20051;-77
2022/11/22 00:24:36;;;;;;;36.65;20.42;;;3.40;99.90;;;;;;5107811;28;20055;-72
2022/11/22 00:27:02;;;;;;;34.38;22.02;;;3.20;99.90;;;;;;5110634;28;20051;-73
2022/11/22 00:29:28;;;;;;;36.08;23.15;;;3.20;99.90;;;;;;5092975;28;20040;-74
2022/11/22 00:31:53;;;;;;;37.53;23.60;;;3.10;99.90;;;;;;5077272;28;20061;-72
2022/11/22 00:34:19;;;;;;;40.15;23.92;;;3.20;99.90;;;;;;5110865;28;20047;-73
2022/11/22 00:36:45;;;;;;;36.30;22.95;;;3.10;99.90;;;;;;5091232;28;20051;-72
2022/11/22 00:39:10;;;;;;;41.20;22.40;;;3.10;99.90;;;;;;5094132;28;20075;-72
2022/11/22 00:41:36;;;;;;;40.33;22.80;;;3.10;99.90;;;;;;5074116;28;20047;-73
2022/11/22 00:44:02;;;;;;;41.70;23.90;;;3.10;99.90;;;;;;5092544;28;20131;-75
2022/11/22 00:46:27;;;;;;;41.90;24.85;;;3.10;99.90;;;;;;5089851;28;20052;-74
2022/11/22 00:48:53;;;;;;;41.50;24.77;;;3.10;99.90;;;;;;5093687;28;20047;-73
2022/11/22 00:51:19;;;;;;;38.45;23.92;;;3.10;99.90;;;;;;5093831;28;20406;-72
2022/11/22 00:53:44;;;;;;;37.25;22.83;;;3.30;99.90;;;;;;5110427;28;20130;-73
2022/11/22 00:56:10;;;;;;;37.78;23.00;;;3.20;99.90;;;;;;5091409;28;20471;-73
2022/11/22 00:58:36;;;;;;;41.72;24.17;;;3.80;99.90;;;;;;5075738;28;20538;-72
2022/11/22 01:01:01;;;;;;;39.63;22.83;;;3.50;99.90;;;;;;5075382;28;20040;-75
2022/11/22 01:03:27;;;;;;;37.88;24.02;;;3.10;99.90;;;;;;5092236;28;20051;-73
2022/11/22 01:05:53;;;;;;;36.97;21.75;;;3.20;99.90;;;;;;5074770;28;20077;-73
2022/11/22 01:08:18;;;;;;;38.35;23.30;;;3.20;99.90;;;;;;5090596;28;20476;-72
2022/11/22 01:10:44;;;;;;;33.95;19.33;;;3.20;99.90;;;;;;5091294;28;20051;-76
2022/11/22 01:13:11;;;;;;;34.45;20.92;;;3.30;99.90;;;;;;5093716;28;20055;-73
2022/11/22 01:15:37;;;;;;;36.45;21.58;;;3.30;99.90;;;;;;5091769;28;20070;-76
2022/11/22 01:18:03;;;;;;;37.40;22.08;;;3.30;99.90;;;;;;5090917;28;20052;-75
2022/11/22 01:20:29;;;;;;;36.05;20.48;;;3.30;99.90;;;;;;5092112;28;20090;-76
2022/11/22 01:22:56;;;;;;;25.67;14.02;;;3.90;99.90;;;;;;5091960;28;20411;-75
2022/11/22 01:25:22;;;;;;;33.55;18.98;;;3.50;99.90;;;;;;5057528;28;20048;-76
2022/11/22 01:27:49;;;;;;;31.02;19.20;;;3.80;99.90;;;;;;5072894;28;20044;-75
2022/11/22 01:30:16;;;;;;;28.65;15.27;;;3.60;99.90;;;;;;5092299;28;20047;-85
2022/11/22 01:32:41;;;;;;;31.40;19.20;;;3.60;99.90;;;;;;5090186;28;20044;-74
2022/11/22 01:35:08;;;;;;;34.05;21.08;;;3.70;99.90;;;;;;5090230;28;20043;-75
2022/11/22 01:37:33;;;;;;;30.17;18.15;;;3.60;99.90;;;;;;5090850;28;20129;-76
2022/11/22 01:39:59;;;;;;;28.95;17.13;;;3.70;99.90;;;;;;5091344;28;20078;-73
2022/11/22 01:42:43;;;;;;;34.83;21.45;;;4.40;99.90;;;;;;5088778;28;20051;-75
2022/11/22 01:45:30;;;;;;;20.17;10.65;;;3.60;99.90;;;;;;5107288;28;20051;-75
2022/11/22 01:48:12;;;;;;;31.88;18.08;;;3.60;99.90;;;;;;5090116;28;20051;-75
2022/11/22 01:50:41;;;;;;;33.50;20.27;;;3.60;99.90;;;;;;5091956;28;20537;-76
2022/11/22 01:53:19;;;;;;;34.50;21.25;;;3.60;99.90;;;;;;5108209;28;20055;-77
2022/11/22 01:55:47;;;;;;;35.40;20.52;;;3.60;99.90;;;;;;5102805;28;20052;-73
2022/11/22 01:58:14;;;;;;;32.88;20.95;;;3.60;99.90;;;;;;5089958;28;20140;-74
2022/11/22 02:00:41;;;;;;;35.25;21.48;;;3.70;99.90;;;;;;5088895;28;20036;-75
2022/11/22 02:03:09;;;;;;;36.13;21.65;;;3.90;99.90;;;;;;5088717;28;20048;-74
2022/11/22 02:05:35;;;;;;;37.53;21.63;;;3.60;99.90;;;;;;5090467;28;20281;-74
2022/11/22 02:08:36;;;;;;;32.35;16.90;;;3.60;99.90;;;;;;5091441;28;20055;-76
2022/11/22 02:11:03;;;;;;;32.95;19.48;;;3.70;99.90;;;;;;5083299;28;20171;-73
2022/11/22 02:13:33;;;;;;;37.42;21.58;;;3.70;99.90;;;;;;5091274;28;20055;-74
2022/11/22 02:15:59;;;;;;;30.20;19.17;;;3.70;99.90;;;;;;5089737;28;20055;-74
2022/11/22 02:18:25;;;;;;;38.05;22.73;;;3.70;99.90;;;;;;5107387;28;20051;-73
2022/11/22 02:20:53;;;;;;;36.03;21.27;;;3.70;99.90;;;;;;5088902;28;20056;-74
2022/11/22 02:23:31;;;;;;;35.38;21.15;;;3.70;99.90;;;;;;5073166;28;20039;-74
2022/11/22 02:25:59;;;;;;;28.70;15.88;;;3.70;99.90;;;;;;5087373;28;20052;-74
2022/11/22 02:28:27;;;;;;;34.20;21.30;;;3.70;99.90;;;;;;5090171;28;20476;-76
2022/11/22 02:30:53;;;;;;;35.33;21.02;;;3.80;99.90;;;;;;5090985;28;20176;-76
2022/11/22 02:33:19;;;;;;;36.85;19.98;;;3.70;99.90;;;;;;5089231;28;20130;-75
2022/11/22 02:35:45;;;;;;;37.92;22.08;;;3.80;99.90;;;;;;5090353;28;20051;-76
2022/11/22 02:38:15;;;;;;;30.38;18.00;;;3.70;99.90;;;;;;5072268;28;20043;-76
2022/11/22 02:40:53;;;;;;;36.53;22.92;;;4.80;99.90;;;;;;5089970;28;20050;-75
2022/11/22 02:43:33;;;;;;;29.70;16.50;;;3.80;99.90;;;;;;5084918;28;20507;-76
2022/11/22 02:46:08;;;;;;;36.00;20.70;;;3.80;99.90;;;;;;5088122;28;20059;-75
2022/11/22 02:48:43;;;;;;;23.77;13.48;;;3.80;99.90;;;;;;5107068;28;20118;-75
2022/11/22 02:51:09;;;;;;;36.58;21.20;;;3.80;99.90;;;;;;5091900;28;20055;-73
2022/11/22 02:53:35;;;;;;;31.77;18.38;;;3.80;99.90;;;;;;5090682;28;20062;-74
2022/11/22 02:56:01;;;;;;;38.03;23.40;;;3.80;99.90;;;;;;5089273;28;20032;-76
2022/11/22 02:58:26;;;;;;;35.25;21.02;;;3.80;99.90;;;;;;5091118;28;20108;-75
2022/11/22 03:00:52;;;;;;;39.47;23.23;;;3.70;99.90;;;;;;5108501;28;20494;-76
2022/11/22 03:03:18;;;;;;;35.53;20.95;;;3.90;99.90;;;;;;5092114;28;20039;-76
2022/11/22 03:05:43;;;;;;;35.65;21.05;;;3.70;99.90;;;;;;5108896;28;20459;-75
2022/11/22 03:08:09;;;;;;;34.45;21.42;;;3.80;99.90;;;;;;5083181;28;20048;-76
2022/11/22 03:10:35;;;;;;;35.33;21.15;;;4.00;99.90;;;;;;5087161;28;20048;-75
2022/11/22 03:13:00;;;;;;;37.70;22.08;;;3.80;99.90;;;;;;5091269;28;20498;-76
2022/11/22 03:15:26;;;;;;;35.20;20.95;;;3.80;99.90;;;;;;5089086;28;20057;-77
2022/11/22 03:17:59;;;;;;;34.47;19.88;;;3.80;99.90;;;;;;5071737;28;20089;-80
2022/11/22 03:20:26;;;;;;;34.30;21.73;;;3.80;99.90;;;;;;5088580;28;20063;-77
2022/11/22 03:22:52;;;;;;;34.05;19.80;;;3.80;99.90;;;;;;5074324;28;20044;-76
2022/11/22 03:25:17;;;;;;;31.48;19.63;;;4.10;99.90;;;;;;5069903;28;20054;-75
2022/11/22 03:27:43;;;;;;;29.17;16.58;;;4.00;99.90;;;;;;5090909;28;20144;-75
2022/11/22 03:30:09;;;;;;;25.73;13.57;;;4.30;99.90;;;;;;5110108;28;20051;-74
2022/11/22 03:32:35;;;;;;;26.63;15.98;;;4.10;99.90;;;;;;5077054;28;20059;-75
2022/11/22 03:35:01;;;;;;;21.90;12.50;;;4.10;99.90;;;;;;5093826;28;20047;-75
2022/11/22 03:37:26;;;;;;;28.35;15.10;;;4.10;99.90;;;;;;5094186;28;20080;-76
2022/11/22 03:39:52;;;;;;;26.52;14.68;;;4.10;99.90;;;;;;5091749;28;20051;-75
2022/11/22 03:42:18;;;;;;;24.90;11.40;;;4.10;99.90;;;;;;5091038;28;20501;-76
2022/11/22 03:44:44;;;;;;;33.80;20.20;;;4.10;99.90;;;;;;5089870;28;20047;-77
2022/11/22 03:47:09;;;;;;;33.70;21.17;;;4.10;99.90;;;;;;5089966;28;20040;-77
2022/11/22 03:49:35;;;;;;;32.28;17.92;;;4.10;99.90;;;;;;5060283;28;20549;-76
2022/11/22 03:52:01;;;;;;;29.27;16.95;;;5.10;99.90;;;;;;5077598;28;20082;-76
2022/11/22 03:54:26;;;;;;;28.67;17.33;;;4.10;99.90;;;;;;5091507;28;20051;-75
2022/11/22 03:56:52;;;;;;;25.90;15.18;;;4.10;99.90;;;;;;5092064;28;20563;-77
2022/11/22 03:59:18;;;;;;;31.10;16.90;;;4.20;99.90;;;;;;5078185;28;20368;-73
2022/11/22 04:01:43;;;;;;;16.83;8.35;;;4.20;99.90;;;;;;5076396;28;20436;-77
2022/11/22 04:04:09;;;;;;;29.40;16.98;;;4.20;99.90;;;;;;5093052;28;20357;-76
2022/11/22 04:06:37;;;;;;;18.08;10.13;;;4.30;99.90;;;;;;5090584;28;20368;-77
2022/11/22 04:09:03;;;;;;;16.95;9.43;;;4.30;99.90;;;;;;5093960;28;20510;-74
2022/11/22 04:11:29;;;;;;;32.75;20.30;;;4.50;99.90;;;;;;5076648;28;20050;-76
2022/11/22 04:16:39;;;;;;;33.13;18.92;;;4.60;99.90;;;;;;5092665;28;20518;-75
2022/11/22 04:19:05;;;;;;;32.60;19.88;;;4.30;99.90;;;;;;5093595;28;20051;-76
2022/11/22 04:21:33;;;;;;;26.15;16.40;;;4.30;99.90;;;;;;5074643;28;20181;-76
2022/11/22 04:26:52;;;;;;;;;;;4.20;99.90;;;;;;5093087;28;20075;-76
2022/11/22 04:29:19;;;;;;;28.23;16.60;;;4.30;99.90;;;;;;5076070;28;20371;-77
2022/11/22 04:34:30;;;;;;;33.47;18.67;;;4.20;99.90;;;;;;5090044;28;20051;-77
2022/11/22 04:36:56;;;;;;;31.88;17.65;;;4.30;99.90;;;;;;5084873;28;20495;-76
2022/11/22 04:39:21;;;;;;;29.75;18.33;;;4.20;99.90;;;;;;5091015;28;20048;-76
2022/11/22 04:44:39;;;;;;;30.88;18.27;;;4.90;99.90;;;;;;5089363;28;20097;-76
2022/11/22 04:44:42;;;;;;;27.20;16.17;;;4.30;99.90;;;;;;5092234;28;20090;-76
2022/11/22 04:50:00;;;;;;;30.53;18.07;;;4.30;99.90;;;;;;5087617;28;20066;-77
2022/11/22 04:55:10;;;;;;;29.70;18.10;;;4.30;99.90;;;;;;5075734;28;20075;-76
2022/11/22 04:57:36;;;;;;;33.90;21.00;;;4.30;99.90;;;;;;5108610;28;20498;-77
2022/11/22 05:00:03;;;;;;;35.47;21.25;;;4.30;99.90;;;;;;5090672;28;20051;-78
2022/11/22 05:02:28;;;;;;;32.67;20.38;;;4.30;99.90;;;;;;5086969;28;20071;-77
2022/11/22 05:04:54;;;;;;;32.83;18.90;;;4.30;99.90;;;;;;5075624;28;20519;-77
2022/11/22 05:07:20;;;;;;;32.85;20.85;;;4.40;99.90;;;;;;5075608;28;20515;-75
2022/11/22 05:09:45;;;;;;;34.30;19.80;;;4.70;99.90;;;;;;5075191;28;20052;-76
2022/11/22 05:12:11;;;;;;;32.60;19.02;;;4.50;99.90;;;;;;5074961;28;20047;-76
2022/11/22 05:14:37;;;;;;;32.47;18.88;;;5.50;99.90;;;;;;5092367;28;20142;-77
2022/11/22 05:17:02;;;;;;;31.17;17.98;;;4.50;99.90;;;;;;5109675;28;20047;-75
2022/11/22 05:19:28;;;;;;;30.77;20.17;;;4.60;99.90;;;;;;5091010;28;20075;-77
2022/11/22 05:21:54;;;;;;;32.40;20.55;;;5.20;99.90;;;;;;5091102;28;20047;-77
2022/11/22 05:24:19;;;;;;;35.20;21.15;;;4.60;99.90;;;;;;5075444;28;20050;-76
2022/11/22 05:26:45;;;;;;;37.65;23.00;;;4.60;99.90;;;;;;5091047;28;20052;-75
2022/11/22 05:29:11;;;;;;;35.55;22.63;;;4.60;99.90;;;;;;5088204;28;20396;-76
2022/11/22 05:31:38;;;;;;;37.83;23.98;;;5.20;99.90;;;;;;5088645;28;20043;-76
2022/11/22 05:34:04;;;;;;;35.42;22.10;;;4.60;99.90;;;;;;5089915;28;20051;-77
2022/11/22 05:36:32;;;;;;;42.30;23.65;;;4.70;99.90;;;;;;5087185;28;20046;-76
2022/11/22 05:38:58;;;;;;;41.00;23.20;;;4.70;99.90;;;;;;5095053;28;20056;-76
2022/11/22 05:41:23;;;;;;;36.22;22.35;;;4.70;99.90;;;;;;5107931;28;20040;-76
2022/11/22 05:43:49;;;;;;;35.35;21.00;;;4.70;99.90;;;;;;5074304;28;20435;-78
2022/11/22 05:46:23;;;;;;;35.40;20.70;;;4.80;99.90;;;;;;5089757;28;20058;-76
2022/11/22 05:48:49;;;;;;;35.00;20.10;;;4.80;99.90;;;;;;5086548;28;20396;-76
2022/11/22 05:51:17;;;;;;;35.88;20.60;;;4.90;99.90;;;;;;5086905;28;20052;-76
2022/11/22 05:53:44;;;;;;;38.30;22.50;;;4.90;99.90;;;;;;5072175;28;20122;-77
2022/11/22 05:56:21;;;;;;;36.40;21.48;;;5.00;99.90;;;;;;5070675;28;20052;-77
2022/11/22 05:58:48;;;;;;;37.60;20.85;;;4.90;99.90;;;;;;5071321;28;20101;-76
2022/11/22 06:01:17;;;;;;;39.17;20.50;;;5.00;99.90;;;;;;5088208;28;20040;-77
2022/11/22 06:03:43;;;;;;;40.53;21.88;;;5.00;99.90;;;;;;5092003;28;20047;-78
2022/11/22 06:06:10;;;;;;;36.25;22.45;;;5.00;99.90;;;;;;5108203;28;20044;-76
2022/11/22 06:08:37;;;;;;;37.88;22.13;;;5.00;99.90;;;;;;5090101;28;20043;-76
2022/11/22 06:11:05;;;;;;;39.33;22.15;;;5.10;99.90;;;;;;5089365;28;20039;-76
2022/11/22 06:13:35;;;;;;;39.58;22.83;;;5.00;99.90;;;;;;5092680;28;20078;-77
2022/11/22 06:16:02;;;;;;;38.60;22.77;;;5.10;99.90;;;;;;5071403;28;20372;-75
2022/11/22 06:18:28;;;;;;;36.33;21.63;;;5.10;99.90;;;;;;5084127;28;20071;-77
2022/11/22 06:21:06;;;;;;;39.88;22.85;;;5.50;99.90;;;;;;5071255;28;20071;-76
2022/11/22 06:23:32;;;;;;;41.97;24.00;;;5.10;99.90;;;;;;5090497;28;20105;-76
2022/11/22 06:26:06;;;;;;;35.92;21.73;;;5.00;99.90;;;;;;5088129;28;20511;-77
2022/11/22 06:28:34;;;;;;;38.45;22.00;;;5.10;99.90;;;;;;5087058;28;20403;-76
2022/11/22 06:31:01;;;;;;;35.67;20.40;;;5.10;99.90;;;;;;5088935;28;20048;-76
2022/11/22 06:33:27;;;;;;;37.80;21.30;;;5.20;99.90;;;;;;5091105;28;20089;-77
2022/11/22 06:35:53;;;;;;;36.75;21.15;;;5.20;99.90;;;;;;5089831;28;20056;-78
2022/11/22 06:38:18;;;;;;;36.22;20.98;;;5.20;99.90;;;;;;5057028;28;20074;-76
2022/11/22 06:40:44;;;;;;;38.72;23.02;;;5.50;99.90;;;;;;5058719;28;20043;-76
2022/11/22 06:43:10;;;;;;;37.22;20.55;;;5.30;99.90;;;;;;5073390;28;20044;-77
2022/11/22 06:45:35;;;;;;;35.60;21.80;;;5.10;99.90;;;;;;5090368;28;20052;-76
2022/11/22 06:48:01;;;;;;;38.65;22.35;;;5.20;99.90;;;;;;5090835;28;20068;-76
2022/11/22 06:50:27;;;;;;;38.53;21.75;;;5.20;99.90;;;;;;5090178;28;20498;-76
2022/11/22 06:52:52;;;;;;;38.15;20.52;;;5.20;99.90;;;;;;5090215;28;20126;-76
2022/11/22 06:55:18;;;;;;;32.95;19.45;;;5.20;99.90;;;;;;5087895;28;20055;-75
2022/11/22 06:57:49;;;;;;;39.45;22.50;;;5.20;99.90;;;;;;5109621;28;20052;-76
2022/11/22 07:00:15;;;;;;;36.38;21.90;;;5.40;99.90;;;;;;5090565;28;20047;-77
2022/11/22 07:02:41;;;;;;;41.30;23.48;;;5.30;99.90;;;;;;5090362;28;20043;-79
2022/11/22 07:05:07;;;;;;;38.08;20.90;;;5.30;99.90;;;;;;5057926;28;20790;-76
2022/11/22 07:07:33;;;;;;;35.50;21.20;;;5.30;99.90;;;;;;5088080;28;20039;-75
2022/11/22 07:09:58;;;;;;;33.55;20.65;;;5.30;99.90;;;;;;5078758;28;20419;-76
2022/11/22 07:12:25;;;;;;;38.22;21.75;;;5.30;99.90;;;;;;5091526;28;20079;-76
2022/11/22 07:14:50;;;;;;;42.20;21.90;;;5.40;99.90;;;;;;5091698;28;20044;-76
2022/11/22 07:17:16;;;;;;;31.58;18.45;;;5.30;99.90;;;;;;5077257;28;20043;-79
2022/11/22 07:19:42;;;;;;;38.00;21.20;;;5.40;99.90;;;;;;5077362;28;20475;-77
2022/11/22 07:22:07;;;;;;;36.45;19.50;;;5.40;99.90;;;;;;5093252;28;20050;-76
2022/11/22 07:24:33;;;;;;;32.45;19.70;;;5.40;99.90;;;;;;5093427;28;20100;-76
2022/11/22 07:26:59;;;;;;;34.47;19.40;;;5.40;99.90;;;;;;5037812;28;20501;-77
2022/11/22 07:29:24;;;;;;;35.33;19.95;;;5.30;99.90;;;;;;5046289;28;20127;-76
2022/11/22 07:31:50;;;;;;;35.80;20.65;;;5.30;99.90;;;;;;5044201;28;20041;-76
2022/11/22 07:34:16;;;;;;;34.92;19.17;;;5.30;99.90;;;;;;5061459;28;20044;-77
2022/11/22 07:36:41;;;;;;;36.45;18.80;;;5.30;99.90;;;;;;5059013;28;20492;-76
2022/11/22 07:39:07;;;;;;;30.13;17.27;;;5.40;99.90;;;;;;5060400;28;20436;-75
2022/11/22 07:41:33;;;;;;;30.95;16.40;;;5.30;99.90;;;;;;5042259;28;20055;-76
2022/11/22 07:43:58;;;;;;;30.30;15.10;;;5.40;99.90;;;;;;5043634;28;20053;-78
2022/11/22 07:46:29;;;;;;;30.42;15.40;;;5.40;99.90;;;;;;5058093;28;20037;-76
2022/11/22 07:48:56;;;;;;;27.38;13.85;;;5.40;99.90;;;;;;5063056;28;20052;-77
2022/11/22 07:51:22;;;;;;;30.98;13.93;;;5.70;99.90;;;;;;5059403;28;20055;-76
2022/11/22 07:53:48;;;;;;;30.50;13.30;;;5.40;99.90;;;;;;5046240;28;20044;-75
2022/11/22 07:56:14;;;;;;;30.58;11.65;;;5.50;99.90;;;;;;5052615;28;20056;-76
2022/11/22 07:58:40;;;;;;;26.55;11.30;;;5.40;99.90;;;;;;5061257;28;20595;-75
2022/11/22 08:01:11;;;;;;;24.10;9.95;;;5.50;99.90;;;;;;5062296;28;20079;-76
2022/11/22 08:03:37;;;;;;;21.33;9.52;;;5.50;99.90;;;;;;5043903;28;20365;-76
2022/11/22 08:06:05;;;;;;;22.85;8.90;;;5.60;99.90;;;;;;5068303;28;20400;-77
2022/11/22 08:08:31;;;;;;;27.40;8.50;;;5.60;99.90;;;;;;5060385;28;20060;-75
2022/11/22 08:10:57;;;;;;;23.10;7.80;;;6.10;99.90;;;;;;5045337;28;20400;-76
2022/11/22 08:13:23;;;;;;;20.02;7.15;;;5.60;99.90;;;;;;5059578;28;20044;-76
2022/11/22 08:15:49;;;;;;;17.23;6.03;;;5.60;99.90;;;;;;5057815;28;20056;-77
2022/11/22 08:18:15;;;;;;;23.45;6.63;;;5.60;99.90;;;;;;5043331;28;20051;-77
2022/11/22 08:20:41;;;;;;;21.52;6.40;;;5.70;99.90;;;;;;5060062;28;20393;-76
2022/11/22 08:23:06;;;;;;;20.77;5.70;;;5.70;99.90;;;;;;5061333;28;20085;-75
2022/11/22 08:25:32;;;;;;;20.55;5.78;;;5.70;99.90;;;;;;5057482;28;20105;-75
2022/11/22 08:27:58;;;;;;;19.05;4.70;;;5.70;99.90;;;;;;5077495;28;20047;-75
2022/11/22 08:30:24;;;;;;;18.42;5.63;;;5.70;99.90;;;;;;5063044;28;20058;-75
2022/11/22 08:32:50;;;;;;;21.38;5.30;;;5.90;99.90;;;;;;5064967;28;20067;-75
2022/11/22 08:35:16;;;;;;;19.23;4.50;;;5.90;99.90;;;;;;5072149;28;20517;-75
2022/11/22 08:37:42;;;;;;;18.40;4.90;;;6.00;99.90;;;;;;5082520;28;20060;-75
2022/11/22 08:40:08;;;;;;;20.17;4.97;;;6.10;99.90;;;;;;5073270;28;20472;-77
2022/11/22 08:42:34;;;;;;;18.13;4.45;;;6.20;99.90;;;;;;5067441;28;20048;-75
2022/11/22 08:44:59;;;;;;;16.35;4.35;;;6.20;99.90;;;;;;5081107;28;20541;-75
2022/11/22 08:47:25;;;;;;;13.48;3.90;;;6.30;99.90;;;;;;5083489;28;20066;-75
2022/11/22 08:49:51;;;;;;;15.43;4.38;;;6.30;99.90;;;;;;5080711;28;20044;-75
2022/11/22 08:52:16;;;;;;;12.43;3.85;;;6.40;99.90;;;;;;5080801;28;20055;-74
2022/11/22 08:54:42;;;;;;;14.68;3.75;;;6.50;99.90;;;;;;5076328;28;20151;-75
2022/11/22 08:57:08;;;;;;;14.90;4.10;;;6.50;99.90;;;;;;5078009;28;20036;-74
2022/11/22 08:59:34;;;;;;;14.48;4.05;;;6.60;99.90;;;;;;5083150;28;20131;-75
2022/11/22 09:01:59;;;;;;;15.70;4.10;;;6.70;99.90;;;;;;5082599;28;20089;-75
2022/11/22 09:04:25;;;;;;;15.25;3.85;;;6.70;99.90;;;;;;5076744;28;20476;-75
2022/11/22 09:06:51;;;;;;;18.00;3.60;;;6.70;99.90;;;;;;5063976;28;20596;-74
2022/11/22 09:09:17;;;;;;;14.80;3.90;;;6.70;99.90;;;;;;5080618;28;20062;-74
2022/11/22 09:11:42;;;;;;;16.42;3.88;;;6.80;99.90;;;;;;5090042;28;20044;-75
2022/11/22 09:14:08;;;;;;;16.52;3.90;;;6.90;99.90;;;;;;5064669;28;20071;-75
2022/11/22 09:16:34;;;;;;;13.35;3.45;;;7.40;99.90;;;;;;5066524;28;20055;-75
2022/11/22 09:18:59;;;;;;;14.40;3.70;;;7.00;99.90;;;;;;5077961;28;20051;-75
2022/11/22 09:21:25;;;;;;;18.15;4.00;;;7.10;99.90;;;;;;5087991;28;20044;-74
2022/11/22 09:23:52;;;;;;;13.68;3.47;;;7.20;99.90;;;;;;5087450;28;20043;-76
2022/11/22 09:26:25;;;;;;;14.30;3.40;;;7.10;99.90;;;;;;5075884;28;20076;-75
2022/11/22 09:28:54;;;;;;;15.65;3.20;;;7.20;99.90;;;;;;5089740;28;20048;-75
2022/11/22 09:31:21;;;;;;;13.48;3.20;;;7.20;99.90;;;;;;5086691;28;20498;-74
2022/11/22 09:33:48;;;;;;;13.77;3.13;;;7.20;99.90;;;;;;5090514;28;20098;-74
2022/11/22 09:36:19;;;;;;;13.68;3.38;;;7.30;99.90;;;;;;5088933;28;20044;-76
2022/11/22 09:38:45;;;;;;;15.45;3.25;;;7.40;99.90;;;;;;5090100;28;20084;-75
2022/11/22 09:41:38;;;;;;;15.05;3.17;;;7.40;99.90;;;;;;5083476;28;20078;-76
2022/11/22 09:44:41;;;;;;;15.75;3.40;;;7.40;99.90;;;;;;5089843;28;20051;-74
2022/11/22 09:47:37;;;;;;;11.35;3.13;;;7.40;99.90;;;;;;5067221;28;20044;-75
2022/11/22 09:50:29;;;;;;;12.65;2.90;;;7.40;99.90;;;;;;5088151;28;20447;-77
2022/11/22 09:53:08;;;;;;;11.33;2.60;;;7.50;99.90;;;;;;5090311;28;20090;-74
2022/11/22 09:55:43;;;;;;;11.73;3.00;;;7.40;99.90;;;;;;5084895;28;20071;-75
2022/11/22 09:58:09;;;;;;;12.82;3.25;;;7.40;99.90;;;;;;5086461;28;20480;-75
2022/11/22 10:00:34;;;;;;;13.90;3.33;;;7.40;99.90;;;;;;5088482;28;20047;-76
2022/11/22 10:03:07;;;;;;;15.05;3.00;;;7.30;99.90;;;;;;5089980;28;20369;-74
2022/11/22 10:05:59;;;;;;;12.35;2.85;;;7.20;99.90;;;;;;5087726;28;20044;-75
2022/11/22 10:08:42;;;;;;;13.63;2.80;;;7.20;99.90;;;;;;5083018;28;20675;-74
2022/11/22 10:11:29;;;;;;;13.57;2.58;;;7.10;99.90;;;;;;5072155;28;20547;-74
2022/11/22 10:14:01;;;;;;;14.70;3.15;;;7.10;99.90;;;;;;5088891;28;20048;-75
2022/11/22 10:16:51;;;;;;;10.73;2.70;;;7.10;99.90;;;;;;5089067;28;20128;-75
2022/11/22 10:19:36;;;;;;;10.82;2.60;;;7.10;99.90;;;;;;5088244;28;20045;-74
2022/11/22 10:22:13;;;;;;;10.68;2.72;;;7.10;99.90;;;;;;5089253;28;20047;-74
2022/11/22 10:24:39;;;;;;;12.25;2.85;;;7.10;99.90;;;;;;5088851;28;20055;-74
2022/11/22 10:27:14;;;;;;;9.65;2.50;;;7.10;99.90;;;;;;5098476;28;20098;-76
2022/11/22 10:30:00;;;;;;;11.00;2.45;;;7.10;99.90;;;;;;5088857;28;20132;-73
2022/11/22 10:32:52;;;;;;;11.05;2.50;;;7.20;99.90;;;;;;5076285;28;20059;-74
2022/11/22 10:35:26;;;;;;;9.93;2.40;;;7.20;99.90;;;;;;5088616;28;20515;-73
2022/11/22 10:38:21;;;;;;;9.98;2.42;;;7.20;99.90;;;;;;5092736;28;20043;-75
2022/11/22 10:41:05;;;;;;;11.35;2.15;;;7.20;99.90;;;;;;5075406;28;20157;-75
2022/11/22 10:44:05;;;;;;;11.05;2.50;;;7.20;99.90;;;;;;5080631;28;20422;-74
2022/11/22 10:46:46;;;;;;;10.60;2.15;;;7.30;99.90;;;;;;5094720;28;20032;-73
2022/11/22 10:49:52;;;;;;;9.15;2.30;;;7.30;99.90;;;;;;5094669;28;20048;-74
2022/11/22 10:52:22;;;;;;;11.48;2.25;;;7.40;99.90;;;;;;5095268;28;20483;-73
2022/11/22 10:55:08;;;;;;;8.60;2.13;;;7.40;99.90;;;;;;5094737;28;20044;-74
2022/11/22 10:57:43;;;;;;;9.20;2.10;;;7.40;99.90;;;;;;5076114;28;20131;-74
2022/11/22 11:00:20;;;;;;;8.95;2.08;;;7.50;99.90;;;;;;5094198;28;20047;-73
2022/11/22 11:03:10;;;;;;;10.52;2.35;;;7.50;99.90;;;;;;5112867;28;20048;-74
2022/11/22 11:05:46;;;;;;;10.73;2.30;;;7.50;99.90;;;;;;5077565;28;20127;-74
2022/11/22 11:08:15;;;;;;;10.48;2.40;;;7.50;99.90;;;;;;5074863;28;20067;-74
2022/11/22 11:10:44;;;;;;;12.70;2.50;;;7.50;99.90;;;;;;5078116;28;20043;-74
2022/11/22 11:13:27;;;;;;;11.63;2.28;;;8.00;99.90;;;;;;5077232;28;20055;-74
2022/11/22 11:15:56;;;;;;;8.48;2.28;;;7.70;99.90;;;;;;5094125;28;20075;-74
2022/11/22 11:18:50;;;;;;;10.48;2.40;;;7.70;99.90;;;;;;5094695;28;20396;-74
2022/11/22 11:21:16;;;;;;;11.32;2.60;;;7.70;99.90;;;;;;5095685;28;20096;-73
2022/11/22 11:23:42;;;;;;;8.40;2.15;;;7.80;99.90;;;;;;5114260;28;20051;-75
2022/11/22 11:26:22;;;;;;;12.15;2.30;;;7.80;99.90;;;;;;5077098;28;20101;-75
2022/11/22 11:28:48;;;;;;;8.10;2.00;;;7.80;99.90;;;;;;5092141;28;20056;-73
2022/11/22 11:31:17;;;;;;;9.30;2.28;;;7.70;99.90;;;;;;5061778;28;20054;-74
2022/11/22 11:33:44;;;;;;;11.65;2.47;;;8.00;99.90;;;;;;5096118;28;20108;-75
2022/11/22 11:36:12;;;;;;;8.93;2.10;;;7.70;99.90;;;;;;5091034;28;20044;-76
2022/11/22 11:38:41;;;;;;;10.23;2.10;;;7.80;99.90;;;;;;5072254;28;20044;-74
2022/11/22 11:41:18;;;;;;;11.65;2.35;;;7.80;99.90;;;;;;5106544;28;21551;-74
2022/11/22 11:43:45;;;;;;;8.60;2.10;;;7.80;99.90;;;;;;5109681;28;20043;-75
2022/11/22 11:46:19;;;;;;;9.68;2.22;;;7.90;99.90;;;;;;5094147;28;20555;-74
2022/11/22 11:48:46;;;;;;;7.80;2.00;;;7.90;99.90;;;;;;5076099;28;20059;-75
2022/11/22 11:51:21;;;;;;;7.97;2.00;;;8.60;99.90;;;;;;5094993;28;20055;-75
2022/11/22 11:53:58;;;;;;;13.20;2.17;;;7.90;99.90;;;;;;5090574;28;20050;-75
2022/11/22 11:56:47;;;;;;;9.07;2.22;;;7.90;99.90;;;;;;5094209;28;20135;-74
2022/11/22 11:59:35;;;;;;;10.05;2.15;;;8.00;99.90;;;;;;5073128;28;20047;-74
2022/11/22 12:02:12;;;;;;;7.20;2.05;;;8.00;99.90;;;;;;5091858;28;20039;-75
2022/11/22 12:05:05;;;;;;;8.00;1.67;;;8.00;99.90;;;;;;5091106;28;20049;-73
2022/11/22 12:07:33;;;;;;;8.55;2.00;;;8.00;99.90;;;;;;5088447;28;20123;-74
2022/11/22 12:10:00;;;;;;;9.75;2.28;;;7.90;99.90;;;;;;5094638;28;20088;-76
2022/11/22 12:12:42;;;;;;;11.25;2.47;;;7.90;99.90;;;;;;5093516;28;20050;-76
2022/11/22 12:15:21;;;;;;;7.70;2.03;;;7.80;99.90;;;;;;5077228;28;20047;-75
2022/11/22 12:18:05;;;;;;;10.75;2.20;;;7.80;99.90;;;;;;5072829;28;20044;-77
2022/11/22 12:20:54;;;;;;;8.35;2.00;;;7.90;99.90;;;;;;5092938;28;20116;-74
2022/11/22 12:23:25;;;;;;;8.57;2.10;;;7.90;99.90;;;;;;5092568;28;20143;-75
2022/11/22 12:25:55;;;;;;;10.25;2.00;;;7.90;99.90;;;;;;5092681;28;20040;-73
2022/11/22 12:28:23;;;;;;;9.43;2.10;;;7.90;99.90;;;;;;5092445;28;20492;-74
2022/11/22 12:31:26;;;;;;;11.32;2.20;;;7.90;99.90;;;;;;5077467;28;20075;-74
2022/11/22 12:34:01;;;;;;;9.45;2.20;;;7.90;99.90;;;;;;5088815;28;20048;-74
2022/11/22 12:36:42;;;;;;;11.48;2.60;;;7.90;99.90;;;;;;5075181;28;20055;-78
2022/11/22 12:39:13;;;;;;;10.80;2.38;;;7.90;99.90;;;;;;5109607;28;20094;-76
2022/11/22 12:41:41;;;;;;;9.80;2.13;;;7.90;99.90;;;;;;5093606;28;20043;-75
2022/11/22 12:44:14;;;;;;;6.57;2.03;;;7.90;99.90;;;;;;5094539;28;20522;-75
2022/11/22 12:46:49;;;;;;;8.65;2.55;;;7.90;99.90;;;;;;5091364;28;20129;-74
2022/11/22 12:49:36;;;;;;;11.25;2.50;;;7.90;99.90;;;;;;5091252;28;20044;-75
2022/11/22 12:52:37;;;;;;;10.65;2.53;;;7.90;99.90;;;;;;5093709;28;20456;-74
2022/11/22 12:55:34;;;;;;;9.27;2.25;;;7.80;99.90;;;;;;5067538;28;20048;-75
2022/11/22 12:58:26;;;;;;;8.60;1.90;;;7.80;99.90;;;;;;5109979;28;20048;-77
2022/11/22 13:01:02;;;;;;;;;;;7.80;99.90;;;;;;5075319;28;20043;-75
2022/11/22 13:03:44;;;;;;;6.95;1.75;;;7.80;99.90;;;;;;5093636;28;19920;-75
2022/11/22 13:06:11;;;;;;;8.20;2.17;;;7.80;99.90;;;;;;5092065;28;20044;-74
2022/11/22 13:08:42;;;;;;;8.57;1.90;;;7.70;99.90;;;;;;5093156;28;20052;-76
2022/11/22 13:11:12;;;;;;;8.98;2.00;;;7.70;99.90;;;;;;5093622;28;20071;-74